sensor_id;sensor_type;location;lat;lon;timestamp;pressure;altitude;pressure_sealevel;temperature;humidity
54556;BME280;57291;37.520;15.106;2022-10-16T00:01:30;101647.00;;;19.00;79.44
54556;BME280;57291;37.520;15.106;2022-10-16T00:03:59;101647.31;;;18.98;79.28
54556;BME280;57291;37.520;15.106;2022-10-16T00:06:27;101646.34;;;18.94;79.38
54556;BME280;57291;37.520;15.106;2022-10-16T00:08:54;101654.97;;;18.93;79.06
54556;BME280;57291;37.520;15.106;2022-10-16T00:11:25;101650.91;;;18.90;79.36
54556;BME280;57291;37.520;15.106;2022-10-16T00:13:56;101654.00;;;18.89;79.10
54556;BME280;57291;37.520;15.106;2022-10-16T00:16:24;101645.25;;;18.87;79.23
54556;BME280;57291;37.520;15.106;2022-10-16T00:18:51;101646.41;;;18.86;79.46
54556;BME280;57291;37.520;15.106;2022-10-16T00:21:21;101647.19;;;18.86;79.21
54556;BME280;57291;37.520;15.106;2022-10-16T00:24:06;101659.34;;;18.85;79.57
54556;BME280;57291;37.520;15.106;2022-10-16T00:26:36;101655.31;;;18.83;79.61
54556;BME280;57291;37.520;15.106;2022-10-16T00:29:04;101655.78;;;18.85;79.66
54556;BME280;57291;37.520;15.106;2022-10-16T00:31:31;101655.31;;;18.83;79.57
54556;BME280;57291;37.520;15.106;2022-10-16T00:33:58;101652.88;;;18.81;80.03
54556;BME280;57291;37.520;15.106;2022-10-16T00:36:27;101661.78;;;18.78;79.50
54556;BME280;57291;37.520;15.106;2022-10-16T00:38:55;101661.00;;;18.78;79.80
54556;BME280;57291;37.520;15.106;2022-10-16T00:41:24;101661.78;;;18.78;79.67
54556;BME280;57291;37.520;15.106;2022-10-16T00:44:03;101655.47;;;18.78;79.59
54556;BME280;57291;37.520;15.106;2022-10-16T00:46:41;101659.69;;;18.75;79.87
54556;BME280;57291;37.520;15.106;2022-10-16T00:49:15;101658.09;;;18.74;79.54
54556;BME280;57291;37.520;15.106;2022-10-16T00:52:01;101661.97;;;18.73;79.09
54556;BME280;57291;37.520;15.106;2022-10-16T00:54:30;101663.09;;;18.72;79.09
54556;BME280;57291;37.520;15.106;2022-10-16T00:57:00;101660.16;;;18.68;79.08
54556;BME280;57291;37.520;15.106;2022-10-16T00:59:31;101649.34;;;18.63;79.27
54556;BME280;57291;37.520;15.106;2022-10-16T01:01:59;101644.50;;;18.60;79.45
54556;BME280;57291;37.520;15.106;2022-10-16T01:04:32;101651.44;;;18.58;79.82
54556;BME280;57291;37.520;15.106;2022-10-16T01:15:17;101638.34;;;18.63;79.97
54556;BME280;57291;37.520;15.106;2022-10-16T01:18:31;101647.41;;;18.64;79.31
54556;BME280;57291;37.520;15.106;2022-10-16T01:20:44;101646.59;;;18.63;78.88
54556;BME280;57291;37.520;15.106;2022-10-16T01:26:20;101652.41;;;18.62;79.17
54556;BME280;57291;37.520;15.106;2022-10-16T01:28:57;101651.44;;;18.58;78.96
54556;BME280;57291;37.520;15.106;2022-10-16T01:31:32;101657.94;;;18.53;79.39
54556;BME280;57291;37.520;15.106;2022-10-16T01:34:08;101660.69;;;18.53;79.79
54556;BME280;57291;37.520;15.106;2022-10-16T01:36:47;101664.25;;;18.54;80.98
54556;BME280;57291;37.520;15.106;2022-10-16T01:39:21;101668.81;;;18.49;81.16
54556;BME280;57291;37.520;15.106;2022-10-16T01:41:59;101673.16;;;18.50;81.25
54556;BME280;57291;37.520;15.106;2022-10-16T01:44:30;101665.56;;;18.47;81.15
54556;BME280;57291;37.520;15.106;2022-10-16T01:46:59;101668.97;;;18.44;81.11
54556;BME280;57291;37.520;15.106;2022-10-16T01:49:31;101672.06;;;18.43;80.66
54556;BME280;57291;37.520;15.106;2022-10-16T01:52:02;101669.59;;;18.41;80.98
54556;BME280;57291;37.520;15.106;2022-10-16T01:54:32;101671.41;;;18.46;80.54
54556;BME280;57291;37.520;15.106;2022-10-16T01:57:01;101667.50;;;18.47;80.64
54556;BME280;57291;37.520;15.106;2022-10-16T01:59:31;101677.06;;;18.49;80.31
54556;BME280;57291;37.520;15.106;2022-10-16T02:02:03;101666.84;;;18.50;80.22
54556;BME280;57291;37.520;15.106;2022-10-16T02:04:42;101670.72;;;18.49;80.53
54556;BME280;57291;37.520;15.106;2022-10-16T02:07:11;101675.44;;;18.48;80.47
54556;BME280;57291;37.520;15.106;2022-10-16T02:09:38;101676.56;;;18.47;80.41
54556;BME280;57291;37.520;15.106;2022-10-16T02:12:12;101667.34;;;18.43;80.15
54556;BME280;57291;37.520;15.106;2022-10-16T02:14:41;101665.72;;;18.42;80.05
54556;BME280;57291;37.520;15.106;2022-10-16T02:17:16;101667.19;;;18.40;80.17
54556;BME280;57291;37.520;15.106;2022-10-16T02:19:45;101670.91;;;18.35;80.09
54556;BME280;57291;37.520;15.106;2022-10-16T02:22:34;101674.81;;;18.34;80.07
54556;BME280;57291;37.520;15.106;2022-10-16T02:25:36;101673.50;;;18.32;80.19
54556;BME280;57291;37.520;15.106;2022-10-16T02:28:11;101671.41;;;18.28;79.85
54556;BME280;57291;37.520;15.106;2022-10-16T02:30:52;101675.28;;;18.27;79.69
54556;BME280;57291;37.520;15.106;2022-10-16T02:33:22;101679.50;;;18.25;79.45
54556;BME280;57291;37.520;15.106;2022-10-16T02:35:52;101677.06;;;18.23;80.06
54556;BME280;57291;37.520;15.106;2022-10-16T02:38:21;101685.16;;;18.20;79.59
54556;BME280;57291;37.520;15.106;2022-10-16T02:40:50;101684.34;;;18.19;79.62
54556;BME280;57291;37.520;15.106;2022-10-16T02:43:18;101685.81;;;18.17;79.27
54556;BME280;57291;37.520;15.106;2022-10-16T02:45:46;101690.81;;;18.15;79.13
54556;BME280;57291;37.520;15.106;2022-10-16T02:48:13;101691.47;;;18.12;79.10
54556;BME280;57291;37.520;15.106;2022-10-16T02:50:39;101690.50;;;18.08;79.26
54556;BME280;57291;37.520;15.106;2022-10-16T02:53:07;101698.59;;;18.04;79.31
54556;BME280;57291;37.520;15.106;2022-10-16T02:55:34;101697.28;;;18.01;79.10
54556;BME280;57291;37.520;15.106;2022-10-16T02:58:00;101693.56;;;17.97;79.09
54556;BME280;57291;37.520;15.106;2022-10-16T03:00:28;101699.06;;;17.97;79.27
54556;BME280;57291;37.520;15.106;2022-10-16T03:02:55;101696.16;;;17.94;78.96
54556;BME280;57291;37.520;15.106;2022-10-16T03:05:22;101697.59;;;17.91;78.77
54556;BME280;57291;37.520;15.106;2022-10-16T03:07:49;101708.25;;;17.93;78.96
54556;BME280;57291;37.520;15.106;2022-10-16T03:10:17;101705.34;;;17.89;79.15
54556;BME280;57291;37.520;15.106;2022-10-16T03:12:44;101703.75;;;17.88;79.04
54556;BME280;57291;37.520;15.106;2022-10-16T03:15:11;101702.13;;;17.87;79.22
54556;BME280;57291;37.520;15.106;2022-10-16T03:17:38;101703.75;;;17.88;79.23
54556;BME280;57291;37.520;15.106;2022-10-16T03:20:06;101703.75;;;17.88;78.94
54556;BME280;57291;37.520;15.106;2022-10-16T03:22:33;101717.50;;;17.88;78.88
54556;BME280;57291;37.520;15.106;2022-10-16T03:25:00;101714.75;;;17.88;79.31
54556;BME280;57291;37.520;15.106;2022-10-16T03:27:27;101716.69;;;17.88;79.09
54556;BME280;57291;37.520;15.106;2022-10-16T03:29:55;101708.75;;;17.86;79.23
54556;BME280;57291;37.520;15.106;2022-10-16T03:32:22;101716.53;;;17.84;79.35
54556;BME280;57291;37.520;15.106;2022-10-16T03:34:51;101715.72;;;17.84;79.70
54556;BME280;57291;37.520;15.106;2022-10-16T03:37:20;101727.69;;;17.88;79.69
54556;BME280;57291;37.520;15.106;2022-10-16T03:39:47;101728.50;;;17.88;79.37
54556;BME280;57291;37.520;15.106;2022-10-16T03:42:14;101733.50;;;17.86;79.50
54556;BME280;57291;37.520;15.106;2022-10-16T03:44:42;101722.50;;;17.86;79.49
54556;BME280;57291;37.520;15.106;2022-10-16T03:47:09;101726.88;;;17.87;79.62
54556;BME280;57291;37.520;15.106;2022-10-16T03:49:36;101725.41;;;17.90;79.49
54556;BME280;57291;37.520;15.106;2022-10-16T03:52:03;101736.41;;;17.90;79.49
54556;BME280;57291;37.520;15.106;2022-10-16T03:54:30;101732.03;;;17.89;79.81
54556;BME280;57291;37.520;15.106;2022-10-16T03:56:57;101731.25;;;17.88;80.20
54556;BME280;57291;37.520;15.106;2022-10-16T03:59:24;101728.50;;;17.88;79.94
54556;BME280;57291;37.520;15.106;2022-10-16T04:01:51;101738.69;;;17.88;80.36
54556;BME280;57291;37.520;15.106;2022-10-16T04:04:18;101736.25;;;17.86;80.38
54556;BME280;57291;37.520;15.106;2022-10-16T04:06:45;101736.25;;;17.86;80.64
54556;BME280;57291;37.520;15.106;2022-10-16T04:09:12;101740.94;;;17.86;80.24
54556;BME280;57291;37.520;15.106;2022-10-16T04:11:39;101747.06;;;17.83;80.26
54556;BME280;57291;37.520;15.106;2022-10-16T04:14:06;101738.66;;;17.79;80.71
54556;BME280;57291;37.520;15.106;2022-10-16T04:16:33;101737.34;;;17.76;80.28
54556;BME280;57291;37.520;15.106;2022-10-16T04:19:00;101734.41;;;17.73;80.48
54556;BME280;57291;37.520;15.106;2022-10-16T04:21:27;101744.13;;;17.70;80.50
54556;BME280;57291;37.520;15.106;2022-10-16T04:23:54;101742.47;;;17.69;80.47
54556;BME280;57291;37.520;15.106;2022-10-16T04:26:21;101742.31;;;17.66;80.64
54556;BME280;57291;37.520;15.106;2022-10-16T04:28:48;101741.97;;;17.58;80.98
54556;BME280;57291;37.520;15.106;2022-10-16T04:31:16;101747.91;;;17.52;81.35
54556;BME280;57291;37.520;15.106;2022-10-16T04:33:43;101746.59;;;17.49;81.36
54556;BME280;57291;37.520;15.106;2022-10-16T04:36:10;101748.53;;;17.49;81.65
54556;BME280;57291;37.520;15.106;2022-10-16T04:38:37;101742.41;;;17.52;82.36
54556;BME280;57291;37.520;15.106;2022-10-16T04:41:07;101736.91;;;17.52;81.90
54556;BME280;57291;37.520;15.106;2022-10-16T04:43:34;101738.06;;;17.51;81.95
54556;BME280;57291;37.520;15.106;2022-10-16T04:46:01;101742.72;;;17.50;82.40
54556;BME280;57291;37.520;15.106;2022-10-16T04:48:32;101739.50;;;17.48;82.68
54556;BME280;57291;37.520;15.106;2022-10-16T04:50:59;101749.69;;;17.48;82.35
54556;BME280;57291;37.520;15.106;2022-10-16T04:53:26;101743.38;;;17.47;82.31
54556;BME280;57291;37.520;15.106;2022-10-16T04:55:53;101745.63;;;17.45;82.24
54556;BME280;57291;37.520;15.106;2022-10-16T04:58:20;101734.94;;;17.44;82.45
54556;BME280;57291;37.520;15.106;2022-10-16T05:00:47;101747.56;;;17.45;82.55
54556;BME280;57291;37.520;15.106;2022-10-16T05:03:14;101744.50;;;17.46;82.66
54556;BME280;57291;37.520;15.106;2022-10-16T05:05:43;101743.38;;;17.47;82.51
54556;BME280;57291;37.520;15.106;2022-10-16T05:08:15;101746.94;;;17.48;82.50
54556;BME280;57291;37.520;15.106;2022-10-16T05:10:43;101747.41;;;17.50;82.51
54556;BME280;57291;37.520;15.106;2022-10-16T05:13:11;101745.47;;;17.50;82.55
54556;BME280;57291;37.520;15.106;2022-10-16T05:15:38;101757.94;;;17.56;82.11
54556;BME280;57291;37.520;15.106;2022-10-16T05:18:05;101751.34;;;17.66;82.17
54556;BME280;57291;37.520;15.106;2022-10-16T05:20:32;101761.50;;;17.88;82.77
54556;BME280;57291;37.520;15.106;2022-10-16T05:22:59;101756.50;;;18.16;82.90
54556;BME280;57291;37.520;15.106;2022-10-16T05:25:27;101753.50;;;18.52;82.64
54556;BME280;57291;37.520;15.106;2022-10-16T05:27:54;101751.03;;;18.94;81.49
54556;BME280;57291;37.520;15.106;2022-10-16T05:30:21;101756.25;;;19.34;78.94
54556;BME280;57291;37.520;15.106;2022-10-16T05:32:49;101747.31;;;19.84;77.98
54556;BME280;57291;37.520;15.106;2022-10-16T05:35:18;101757.44;;;20.43;76.38
54556;BME280;57291;37.520;15.106;2022-10-16T05:37:46;101756.81;;;21.00;74.17
54556;BME280;57291;37.520;15.106;2022-10-16T05:40:13;101750.34;;;21.54;72.46
54556;BME280;57291;37.520;15.106;2022-10-16T05:42:41;101758.41;;;22.08;69.98
54556;BME280;57291;37.520;15.106;2022-10-16T05:45:10;101760.94;;;22.54;67.09
54556;BME280;57291;37.520;15.106;2022-10-16T05:47:39;101766.19;;;22.99;65.09
54556;BME280;57291;37.520;15.106;2022-10-16T05:50:06;101772.94;;;23.46;63.36
54556;BME280;57291;37.520;15.106;2022-10-16T05:52:33;101775.91;;;23.84;60.96
54556;BME280;57291;37.520;15.106;2022-10-16T05:55:00;101785.94;;;24.24;59.79
54556;BME280;57291;37.520;15.106;2022-10-16T05:57:27;101784.59;;;24.73;57.80
54556;BME280;57291;37.520;15.106;2022-10-16T05:59:55;101777.97;;;25.00;55.92
54556;BME280;57291;37.520;15.106;2022-10-16T06:02:22;101785.84;;;25.14;54.46
54556;BME280;57291;37.520;15.106;2022-10-16T06:04:49;101790.09;;;25.54;53.25
54556;BME280;57291;37.520;15.106;2022-10-16T06:07:15;101786.03;;;25.98;52.08
54556;BME280;57291;37.520;15.106;2022-10-16T06:09:42;101781.25;;;26.25;51.08
54556;BME280;57291;37.520;15.106;2022-10-16T06:12:10;101781.34;;;26.32;49.90
54556;BME280;57291;37.520;15.106;2022-10-16T06:14:37;101783.69;;;26.94;49.72
54556;BME280;57291;37.520;15.106;2022-10-16T06:17:04;101784.81;;;26.85;48.61
54556;BME280;57291;37.520;15.106;2022-10-16T06:19:31;101790.94;;;26.34;49.32
54556;BME280;57291;37.520;15.106;2022-10-16T06:21:58;101799.19;;;25.74;50.55
54556;BME280;57291;37.520;15.106;2022-10-16T06:24:25;101805.91;;;25.73;50.94
54556;BME280;57291;37.520;15.106;2022-10-16T06:26:52;101795.19;;;25.98;51.00
54556;BME280;57291;37.520;15.106;2022-10-16T06:29:19;101794.25;;;26.43;50.02
54556;BME280;57291;37.520;15.106;2022-10-16T06:31:46;101809.19;;;26.92;48.70
54556;BME280;57291;37.520;15.106;2022-10-16T06:34:14;101807.25;;;27.33;47.76
54556;BME280;57291;37.520;15.106;2022-10-16T06:36:41;101807.94;;;27.64;46.72
54556;BME280;57291;37.520;15.106;2022-10-16T06:39:10;101812.63;;;28.04;48.01
54556;BME280;57291;37.520;15.106;2022-10-16T06:41:37;101809.59;;;27.76;47.63
54556;BME280;57291;37.520;15.106;2022-10-16T06:44:26;101805.66;;;26.95;49.56
54556;BME280;57291;37.520;15.106;2022-10-16T06:46:53;101814.34;;;26.56;50.20
54556;BME280;57291;37.520;15.106;2022-10-16T06:49:20;101825.78;;;25.71;51.93
54556;BME280;57291;37.520;15.106;2022-10-16T06:51:49;101823.09;;;26.02;52.73
54556;BME280;57291;37.520;15.106;2022-10-16T06:54:16;101817.94;;;26.30;51.74
54556;BME280;57291;37.520;15.106;2022-10-16T06:56:44;101826.72;;;26.32;51.23
54556;BME280;57291;37.520;15.106;2022-10-16T06:59:11;101834.00;;;26.40;50.93
54556;BME280;57291;37.520;15.106;2022-10-16T07:01:38;101848.09;;;25.75;53.35
54556;BME280;57291;37.520;15.106;2022-10-16T07:04:05;101840.78;;;24.63;55.90
54556;BME280;57291;37.520;15.106;2022-10-16T07:06:33;101848.13;;;24.20;56.09
54556;BME280;57291;37.520;15.106;2022-10-16T07:09:03;101845.19;;;24.13;56.09
54556;BME280;57291;37.520;15.106;2022-10-16T07:11:31;101854.66;;;24.11;57.83
54556;BME280;57291;37.520;15.106;2022-10-16T07:13:59;101862.31;;;24.85;54.30
54556;BME280;57291;37.520;15.106;2022-10-16T07:16:28;101861.22;;;25.52;52.24
54556;BME280;57291;37.520;15.106;2022-10-16T07:18:57;101863.19;;;26.20;50.69
54556;BME280;57291;37.520;15.106;2022-10-16T07:21:30;101862.31;;;26.42;49.20
54556;BME280;57291;37.520;15.106;2022-10-16T07:23:59;101870.84;;;26.00;50.71
54556;BME280;57291;37.520;15.106;2022-10-16T07:26:33;101873.34;;;25.63;51.38
54556;BME280;57291;37.520;15.106;2022-10-16T07:29:00;101880.78;;;24.77;54.68
54556;BME280;57291;37.520;15.106;2022-10-16T07:31:27;101882.50;;;24.31;54.92
54556;BME280;57291;37.520;15.106;2022-10-16T07:33:55;101886.59;;;23.86;56.19
54556;BME280;57291;37.520;15.106;2022-10-16T07:36:22;101888.38;;;23.34;57.94
54556;BME280;57291;37.520;15.106;2022-10-16T07:38:49;101895.91;;;23.34;58.00
54556;BME280;57291;37.520;15.106;2022-10-16T07:41:21;101894.69;;;23.19;58.95
54556;BME280;57291;37.520;15.106;2022-10-16T07:43:52;101899.97;;;23.24;58.58
54556;BME280;57291;37.520;15.106;2022-10-16T07:46:21;101909.50;;;23.39;58.98
54556;BME280;57291;37.520;15.106;2022-10-16T07:48:49;101905.88;;;23.51;58.87
54556;BME280;57291;37.520;15.106;2022-10-16T07:51:18;101904.16;;;23.46;60.05
54556;BME280;57291;37.520;15.106;2022-10-16T07:53:46;101908.91;;;23.17;61.09
54556;BME280;57291;37.520;15.106;2022-10-16T07:56:14;101901.59;;;22.97;61.14
54556;BME280;57291;37.520;15.106;2022-10-16T07:58:42;101911.59;;;23.14;61.76
54556;BME280;57291;37.520;15.106;2022-10-16T08:01:13;101910.13;;;23.04;61.21
54556;BME280;57291;37.520;15.106;2022-10-16T08:03:49;101916.09;;;23.06;60.79
54556;BME280;57291;37.520;15.106;2022-10-16T08:06:18;101918.00;;;22.78;61.46
54556;BME280;57291;37.520;15.106;2022-10-16T08:08:51;101920.19;;;22.84;61.56
54556;BME280;57291;37.520;15.106;2022-10-16T08:11:18;101917.84;;;22.86;62.65
54556;BME280;57291;37.520;15.106;2022-10-16T08:13:45;101920.00;;;23.17;61.44
54556;BME280;57291;37.520;15.106;2022-10-16T08:16:12;101925.94;;;23.32;60.84
54556;BME280;57291;37.520;15.106;2022-10-16T08:18:40;101919.69;;;23.35;60.57
54556;BME280;57291;37.520;15.106;2022-10-16T08:21:16;101923.63;;;23.34;60.69
54556;BME280;57291;37.520;15.106;2022-10-16T08:23:47;101925.84;;;22.88;62.44
54556;BME280;57291;37.520;15.106;2022-10-16T08:26:22;101931.91;;;22.41;63.81
54556;BME280;57291;37.520;15.106;2022-10-16T08:28:50;101929.47;;;22.39;64.74
54556;BME280;57291;37.520;15.106;2022-10-16T08:31:19;101936.03;;;22.59;64.45
54556;BME280;57291;37.520;15.106;2022-10-16T08:33:47;101937.03;;;22.79;62.77
54556;BME280;57291;37.520;15.106;2022-10-16T08:36:15;101934.44;;;22.46;63.56
54556;BME280;57291;37.520;15.106;2022-10-16T08:38:43;101929.91;;;22.78;64.09
54556;BME280;57291;37.520;15.106;2022-10-16T08:46:54;101937.44;;;22.41;64.39
54556;BME280;57291;37.520;15.106;2022-10-16T08:49:24;101943.69;;;22.38;65.12
54556;BME280;57291;37.520;15.106;2022-10-16T08:51:52;101940.09;;;22.62;65.38
54556;BME280;57291;37.520;15.106;2022-10-16T08:54:36;101939.22;;;22.86;64.77
54556;BME280;57291;37.520;15.106;2022-10-16T08:57:19;101939.22;;;23.10;64.52
54556;BME280;57291;37.520;15.106;2022-10-16T08:59:51;101948.13;;;23.32;63.19
54556;BME280;57291;37.520;15.106;2022-10-16T09:03:03;101943.94;;;23.66;61.50
54556;BME280;57291;37.520;15.106;2022-10-16T09:05:55;101944.50;;;23.72;59.95
54556;BME280;57291;37.520;15.106;2022-10-16T09:09:06;101944.91;;;23.58;61.10
54556;BME280;57291;37.520;15.106;2022-10-16T09:17:27;101948.31;;;23.11;63.00
54556;BME280;57291;37.520;15.106;2022-10-16T09:22:37;101945.34;;;23.04;62.83
54556;BME280;57291;37.520;15.106;2022-10-16T09:25:17;101942.63;;;23.20;62.14
54556;BME280;57291;37.520;15.106;2022-10-16T09:27:47;101943.91;;;23.50;61.79
54556;BME280;57291;37.520;15.106;2022-10-16T09:30:19;101950.34;;;23.26;62.61
54556;BME280;57291;37.520;15.106;2022-10-16T09:32:50;101942.88;;;23.14;65.74
54556;BME280;57291;37.520;15.106;2022-10-16T09:35:22;101942.88;;;23.14;66.57
54556;BME280;57291;37.520;15.106;2022-10-16T09:37:54;101943.47;;;23.08;66.97
54556;BME280;57291;37.520;15.106;2022-10-16T09:46:05;101943.19;;;22.97;67.62
54556;BME280;57291;37.520;15.106;2022-10-16T09:48:49;101935.59;;;23.10;67.12
54556;BME280;57291;37.520;15.106;2022-10-16T09:51:21;101937.94;;;23.08;67.70
54556;BME280;57291;37.520;15.106;2022-10-16T09:53:48;101939.75;;;23.16;66.74
54556;BME280;57291;37.520;15.106;2022-10-16T09:56:29;101938.94;;;23.15;66.90
54556;BME280;57291;37.520;15.106;2022-10-16T09:58:58;101940.06;;;23.27;67.46
54556;BME280;57291;37.520;15.106;2022-10-16T10:01:44;101937.50;;;23.34;67.78
54556;BME280;57291;37.520;15.106;2022-10-16T10:04:12;101935.56;;;23.22;67.95
54556;BME280;57291;37.520;15.106;2022-10-16T10:06:51;101940.06;;;23.27;68.24
54556;BME280;57291;37.520;15.106;2022-10-16T10:09:27;101938.63;;;23.33;69.04
54556;BME280;57291;37.520;15.106;2022-10-16T10:12:03;101929.28;;;23.37;69.00
54556;BME280;57291;37.520;15.106;2022-10-16T10:14:35;101929.84;;;23.43;68.76
54556;BME280;57291;37.520;15.106;2022-10-16T10:25:15;101915.25;;;23.18;70.08
54556;BME280;57291;37.520;15.106;2022-10-16T10:33:31;101917.13;;;23.14;69.65
54556;BME280;57291;37.520;15.106;2022-10-16T10:47:06;101900.81;;;22.72;71.44
54556;BME280;57291;37.520;15.106;2022-10-16T10:50:19;101901.13;;;22.83;71.66
54556;BME280;57291;37.520;15.106;2022-10-16T10:53:53;101902.28;;;22.94;71.32
54556;BME280;57291;37.520;15.106;2022-10-16T11:01:48;101896.69;;;23.06;70.13
54556;BME280;57291;37.520;15.106;2022-10-16T11:04:41;101898.53;;;23.14;69.88
54556;BME280;57291;37.520;15.106;2022-10-16T11:07:30;101887.16;;;23.20;69.07
54556;BME280;57291;37.520;15.106;2022-10-16T11:10:05;101879.81;;;23.11;69.13
54556;BME280;57291;37.520;15.106;2022-10-16T11:12:42;101884.69;;;23.02;68.86
54556;BME280;57291;37.520;15.106;2022-10-16T11:15:32;101881.50;;;23.00;70.34
54556;BME280;57291;37.520;15.106;2022-10-16T11:20:45;101883.91;;;22.89;69.57
54556;BME280;57291;37.520;15.106;2022-10-16T11:23:53;101877.13;;;22.87;69.40
54556;BME280;57291;37.520;15.106;2022-10-16T11:26:21;101878.16;;;22.82;70.46
54556;BME280;57291;37.520;15.106;2022-10-16T11:28:53;101872.41;;;22.75;69.25
54556;BME280;57291;37.520;15.106;2022-10-16T11:31:34;101869.63;;;22.75;70.67
54556;BME280;57291;37.520;15.106;2022-10-16T11:34:28;101867.72;;;23.04;70.24
54556;BME280;57291;37.520;15.106;2022-10-16T11:37:10;101862.00;;;23.12;68.54
54556;BME280;57291;37.520;15.106;2022-10-16T11:39:38;101869.13;;;22.98;68.96
54556;BME280;57291;37.520;15.106;2022-10-16T11:42:22;101868.31;;;22.97;70.55
54556;BME280;57291;37.520;15.106;2022-10-16T11:45:16;101862.50;;;23.02;69.54
54556;BME280;57291;37.520;15.106;2022-10-16T11:50:43;101852.66;;;23.17;68.84
54556;BME280;57291;37.520;15.106;2022-10-16T11:56:00;101845.59;;;23.35;68.83
54556;BME280;57291;37.520;15.106;2022-10-16T11:58:42;101856.50;;;23.28;69.17
54556;BME280;57291;37.520;15.106;2022-10-16T12:04:16;101849.81;;;23.45;68.30
54556;BME280;57291;37.520;15.106;2022-10-16T12:07:09;101852.84;;;23.24;69.42
54556;BME280;57291;37.520;15.106;2022-10-16T12:09:39;101841.84;;;23.28;67.98
54556;BME280;57291;37.520;15.106;2022-10-16T12:12:26;101838.50;;;23.22;69.38
54556;BME280;57291;37.520;15.106;2022-10-16T12:15:17;101833.75;;;23.23;68.82
54556;BME280;57291;37.520;15.106;2022-10-16T12:18:07;101832.06;;;23.18;68.35
54556;BME280;57291;37.520;15.106;2022-10-16T12:20:55;101818.13;;;23.30;67.87
54556;BME280;57291;37.520;15.106;2022-10-16T12:23:26;101821.00;;;23.34;67.48
54556;BME280;57291;37.520;15.106;2022-10-16T12:25:58;101831.91;;;23.27;68.74
54556;BME280;57291;37.520;15.106;2022-10-16T12:28:31;101827.34;;;23.34;68.54
54556;BME280;57291;37.520;15.106;2022-10-16T12:31:07;101823.59;;;23.27;68.54
54556;BME280;57291;37.520;15.106;2022-10-16T12:34:37;101828.69;;;23.25;67.97
54556;BME280;57291;37.520;15.106;2022-10-16T12:36:39;101824.13;;;23.16;68.28
54556;BME280;57291;37.520;15.106;2022-10-16T12:39:23;101827.75;;;23.05;66.89
54556;BME280;57291;37.520;15.106;2022-10-16T12:42:03;101826.16;;;23.20;68.82
54556;BME280;57291;37.520;15.106;2022-10-16T12:44:36;101819.38;;;23.33;67.69
54556;BME280;57291;37.520;15.106;2022-10-16T12:47:03;101816.06;;;23.27;68.39
54556;BME280;57291;37.520;15.106;2022-10-16T12:49:35;101824.06;;;23.45;66.92
54556;BME280;57291;37.520;15.106;2022-10-16T12:52:04;101829.31;;;23.34;66.73
54556;BME280;57291;37.520;15.106;2022-10-16T12:54:36;101834.06;;;23.33;68.63
54556;BME280;57291;37.520;15.106;2022-10-16T12:57:08;101840.84;;;23.20;68.23
54556;BME280;57291;37.520;15.106;2022-10-16T13:11:50;101832.06;;;23.18;68.13
54556;BME280;57291;37.520;15.106;2022-10-16T13:20:06;101828.41;;;22.74;67.74
54556;BME280;57291;37.520;15.106;2022-10-16T13:23:01;101832.72;;;22.59;67.88
54556;BME280;57291;37.520;15.106;2022-10-16T13:28:11;101840.91;;;22.67;69.15
54556;BME280;57291;37.520;15.106;2022-10-16T13:30:50;101838.25;;;22.71;69.81
54556;BME280;57291;37.520;15.106;2022-10-16T13:35:56;101848.16;;;22.72;67.83
54556;BME280;57291;37.520;15.106;2022-10-16T13:38:29;101841.44;;;22.73;67.42
54556;BME280;57291;37.520;15.106;2022-10-16T13:41:00;101845.50;;;22.76;67.57
54556;BME280;57291;37.520;15.106;2022-10-16T13:44:08;101850.56;;;22.74;67.24
54556;BME280;57291;37.520;15.106;2022-10-16T13:46:28;101847.38;;;22.59;65.35
54556;BME280;57291;37.520;15.106;2022-10-16T13:49:03;101850.28;;;22.51;63.85
54556;BME280;57291;37.520;15.106;2022-10-16T13:51:31;101841.38;;;22.57;65.66
54556;BME280;57291;37.520;15.106;2022-10-16T13:53:59;101848.28;;;22.63;66.91
54556;BME280;57291;37.520;15.106;2022-10-16T13:56:28;101844.88;;;22.54;66.91
54556;BME280;57291;37.520;15.106;2022-10-16T13:59:04;101848.34;;;22.51;67.34
54556;BME280;57291;37.520;15.106;2022-10-16T14:01:44;101844.81;;;22.66;67.19
54556;BME280;57291;37.520;15.106;2022-10-16T14:04:12;101844.13;;;22.69;67.56
54556;BME280;57291;37.520;15.106;2022-10-16T14:06:43;101845.63;;;22.67;67.75
54556;BME280;57291;37.520;15.106;2022-10-16T14:12:00;101845.78;;;22.46;68.45
54556;BME280;57291;37.520;15.106;2022-10-16T14:14:35;101849.97;;;22.40;68.56
54556;BME280;57291;37.520;15.106;2022-10-16T14:17:26;101855.75;;;22.35;68.39
54556;BME280;57291;37.520;15.106;2022-10-16T14:19:57;101858.53;;;22.35;68.42
54556;BME280;57291;37.520;15.106;2022-10-16T14:25:21;101855.75;;;22.22;68.34
54556;BME280;57291;37.520;15.106;2022-10-16T14:28:20;101867.63;;;22.23;68.26
54556;BME280;57291;37.520;15.106;2022-10-16T14:30:59;101866.47;;;22.24;69.19
54556;BME280;57291;37.520;15.106;2022-10-16T14:36:12;101864.53;;;22.24;69.88
54556;BME280;57291;37.520;15.106;2022-10-16T14:38:43;101869.13;;;22.20;67.76
54556;BME280;57291;37.520;15.106;2022-10-16T14:41:15;101867.59;;;22.11;68.25
54556;BME280;57291;37.520;15.106;2022-10-16T14:43:43;101880.19;;;22.08;66.94
54556;BME280;57291;37.520;15.106;2022-10-16T14:46:19;101880.44;;;22.15;67.76
54556;BME280;57291;37.520;15.106;2022-10-16T14:48:59;101876.75;;;22.23;67.76
54556;BME280;57291;37.520;15.106;2022-10-16T14:51:27;101878.81;;;22.27;67.53